createdAt,value
2019-04-05T00:00:55.745Z,992.97
2019-04-05T00:01:55.724Z,992.93
2019-04-05T00:02:55.729Z,992.92
2019-04-05T00:03:55.727Z,992.96
2019-04-05T00:04:55.719Z,992.98
2019-04-05T00:05:55.726Z,992.97
2019-04-05T00:06:55.726Z,992.96
2019-04-05T00:07:55.713Z,992.93
2019-04-05T00:08:55.631Z,992.93
2019-04-05T00:09:55.648Z,992.89
2019-04-05T00:10:55.712Z,992.87
2019-04-05T00:11:55.593Z,992.84
2019-04-05T00:12:55.640Z,992.83
2019-04-05T00:13:55.609Z,992.81
2019-04-05T00:14:55.642Z,992.79
2019-04-05T00:15:55.719Z,992.82
2019-04-05T00:16:55.697Z,992.74
2019-04-05T00:17:55.635Z,992.74
2019-04-05T00:18:55.635Z,992.72
2019-04-05T00:19:55.674Z,992.68
2019-04-05T00:20:55.701Z,992.70
2019-04-05T00:21:55.666Z,992.69
2019-04-05T00:22:55.624Z,992.70
2019-04-05T00:23:55.587Z,992.71
2019-04-05T00:24:55.686Z,992.74
2019-04-05T00:25:55.671Z,992.78
2019-04-05T00:26:55.606Z,992.75
2019-04-05T00:27:55.722Z,992.77
2019-04-05T00:28:55.659Z,992.79
2019-04-05T00:29:55.723Z,992.83
2019-04-05T00:30:55.653Z,992.84
2019-04-05T00:31:55.659Z,992.86
2019-04-05T00:32:55.654Z,992.93
2019-04-05T00:33:55.657Z,992.92
2019-04-05T00:34:55.726Z,992.94
2019-04-05T00:35:55.727Z,992.98
2019-04-05T00:36:55.664Z,993.00
2019-04-05T00:37:55.739Z,993.08
2019-04-05T00:38:55.693Z,993.09
2019-04-05T00:39:55.852Z,993.12
2019-04-05T00:40:55.743Z,993.14
2019-04-05T00:41:55.749Z,993.12
2019-04-05T00:42:55.675Z,993.16
2019-04-05T00:43:55.697Z,993.18
2019-04-05T00:44:55.693Z,993.13
2019-04-05T00:45:55.753Z,993.15
2019-04-05T00:46:55.760Z,993.18
2019-04-05T00:47:55.749Z,993.15
2019-04-05T00:48:55.735Z,993.17
2019-04-05T00:49:55.665Z,993.20
2019-04-05T00:50:55.740Z,993.21
2019-04-05T00:51:55.683Z,993.25
2019-04-05T00:52:55.840Z,993.25
2019-04-05T00:53:55.746Z,993.29
2019-04-05T00:54:55.678Z,993.30
2019-04-05T00:55:55.743Z,993.32
2019-04-05T00:56:55.690Z,993.35
2019-04-05T00:57:55.680Z,993.37
2019-04-05T00:58:55.769Z,993.37
2019-04-05T00:59:55.771Z,993.43
2019-04-05T01:00:55.685Z,993.45
2019-04-05T01:01:55.767Z,993.52
2019-04-05T01:02:55.688Z,993.43
2019-04-05T01:03:55.688Z,993.46
2019-04-05T01:04:55.770Z,993.48
2019-04-05T01:05:55.727Z,993.52
2019-04-05T01:06:55.766Z,993.46
2019-04-05T01:07:55.691Z,993.48
2019-04-05T01:08:55.749Z,993.50
2019-04-05T01:09:55.690Z,993.51
2019-04-05T01:10:55.691Z,993.49
2019-04-05T01:11:55.754Z,993.52
2019-04-05T01:12:55.798Z,993.50
2019-04-05T01:13:55.697Z,993.48
2019-04-05T01:14:55.693Z,993.48
2019-04-05T01:15:55.754Z,993.49
2019-04-05T01:16:55.759Z,993.48
2019-04-05T01:17:55.699Z,993.46
2019-04-05T01:18:55.698Z,993.48
2019-04-05T01:19:55.696Z,993.46
2019-04-05T01:20:55.659Z,993.46
2019-04-05T01:21:55.639Z,993.46
2019-04-05T01:22:55.624Z,993.51
2019-04-05T01:23:55.614Z,993.53
2019-04-05T01:24:55.664Z,993.56
2019-04-05T01:25:55.707Z,993.56
2019-04-05T01:26:55.611Z,993.57
2019-04-05T01:27:55.714Z,993.60
2019-04-05T01:28:55.704Z,993.60
2019-04-05T01:29:55.776Z,993.55
2019-04-05T01:30:55.699Z,993.57
2019-04-05T01:31:55.765Z,993.53
2019-04-05T01:32:55.702Z,993.53
2019-04-05T01:33:55.775Z,993.53
2019-04-05T01:34:55.698Z,993.51
2019-04-05T01:35:55.776Z,993.51
2019-04-05T01:36:55.702Z,993.56
2019-04-05T01:37:55.771Z,993.58
2019-04-05T01:38:55.759Z,993.60
2019-04-05T01:39:55.724Z,993.63
2019-04-05T01:40:55.772Z,993.63
2019-04-05T01:41:55.759Z,993.55
2019-04-05T01:42:55.656Z,993.54
2019-04-05T01:43:55.767Z,993.57
2019-04-05T01:44:55.696Z,993.54
2019-04-05T01:45:55.706Z,993.49
2019-04-05T01:46:55.722Z,993.49
2019-04-05T01:47:55.734Z,993.53
2019-04-05T01:48:55.740Z,993.54
2019-04-05T01:49:55.707Z,993.59
2019-04-05T01:50:55.786Z,993.61
2019-04-05T01:51:55.709Z,993.62
2019-04-05T01:52:55.788Z,993.63
2019-04-05T01:53:55.847Z,993.60
2019-04-05T01:54:55.783Z,993.60
2019-04-05T01:55:55.715Z,993.56
2019-04-05T01:56:55.786Z,993.52
2019-04-05T01:57:55.724Z,993.50
2019-04-05T01:58:55.808Z,993.50
2019-04-05T01:59:55.801Z,993.49
2019-04-05T02:00:55.798Z,993.47
2019-04-05T02:01:55.732Z,993.48
2019-04-05T02:02:55.801Z,993.47
2019-04-05T02:03:55.807Z,993.43
2019-04-05T02:04:55.733Z,993.45
2019-04-05T02:05:55.809Z,993.43
2019-04-05T02:06:55.715Z,993.40
2019-04-05T02:07:55.807Z,993.40
2019-04-05T02:08:55.791Z,993.33
2019-04-05T02:09:55.721Z,993.39
2019-04-05T02:10:55.724Z,993.35
2019-04-05T02:11:55.735Z,993.35
2019-04-05T02:12:55.798Z,993.34
2019-04-05T02:13:55.725Z,993.39
2019-04-05T02:14:55.797Z,993.36
2019-04-05T02:16:05.688Z,993.37
2019-04-05T02:16:55.798Z,993.36
2019-04-05T02:17:55.800Z,993.34
2019-04-05T02:18:55.754Z,993.36
2019-04-05T02:19:55.747Z,993.37
2019-04-05T02:20:55.757Z,993.37
2019-04-05T02:21:55.745Z,993.40
2019-04-05T02:22:55.814Z,993.41
2019-04-05T02:23:55.744Z,993.44
2019-04-05T02:24:55.808Z,993.46
2019-04-05T02:25:55.771Z,993.45
2019-04-05T02:26:55.897Z,993.44
2019-04-05T02:27:55.761Z,993.50
2019-04-05T02:28:55.817Z,993.43
2019-04-05T02:29:55.769Z,993.44
2019-04-05T02:30:55.834Z,993.43
2019-04-05T02:31:55.829Z,993.45
2019-04-05T02:32:55.764Z,993.41
2019-04-05T02:33:55.762Z,993.36
2019-04-05T02:34:55.774Z,993.37
2019-04-05T02:35:55.759Z,993.37
2019-04-05T02:36:55.836Z,993.35
2019-04-05T02:37:55.783Z,993.33
2019-04-05T02:38:55.830Z,993.37
2019-04-05T02:39:55.752Z,993.36
2019-04-05T02:40:58.657Z,993.38
2019-04-05T02:41:55.759Z,993.38
2019-04-05T02:42:55.825Z,993.39
2019-04-05T02:43:55.750Z,993.42
2019-04-05T02:44:55.822Z,993.40
2019-04-05T02:45:55.755Z,993.42
2019-04-05T02:46:55.841Z,993.49
2019-04-05T02:47:55.766Z,993.46
2019-04-05T02:48:55.786Z,993.47
2019-04-05T02:49:55.800Z,993.46
2019-04-05T02:50:55.800Z,993.45
2019-04-05T02:51:55.808Z,993.43
2019-04-05T02:52:55.791Z,993.42
2019-04-05T02:53:55.850Z,993.46
2019-04-05T02:54:55.852Z,993.47
2019-04-05T02:55:55.797Z,993.44
2019-04-05T02:56:55.815Z,993.44
2019-04-05T02:57:55.807Z,993.46
2019-04-05T02:58:55.845Z,993.47
2019-04-05T02:59:55.803Z,993.49
2019-04-05T03:00:55.790Z,993.48
2019-04-05T03:01:55.844Z,993.50
2019-04-05T03:02:55.777Z,993.50
2019-04-05T03:03:55.839Z,993.48
2019-04-05T03:04:55.743Z,993.42
2019-04-05T03:05:55.852Z,993.48
2019-04-05T03:06:55.782Z,993.46
2019-04-05T03:07:55.788Z,993.47
2019-04-05T03:08:55.782Z,993.51
2019-04-05T03:09:55.841Z,993.51
2019-04-05T03:10:55.776Z,993.54
2019-04-05T03:11:55.774Z,993.51
2019-04-05T03:12:55.770Z,993.53
2019-04-05T03:13:55.866Z,993.54
2019-04-05T03:14:55.771Z,993.54
2019-04-05T03:15:55.848Z,993.53
2019-04-05T03:16:55.782Z,993.55
2019-04-05T03:17:55.782Z,993.59
2019-04-05T03:18:55.820Z,993.57
2019-04-05T03:19:55.868Z,993.59
2019-04-05T03:20:55.802Z,993.53
2019-04-05T03:21:55.867Z,993.52
2019-04-05T03:22:55.850Z,993.54
2019-04-05T03:23:55.807Z,993.52
2019-04-05T03:24:55.864Z,993.51
2019-04-05T03:25:55.812Z,993.48
2019-04-05T03:26:55.884Z,993.51
2019-04-05T03:27:55.808Z,993.49
2019-04-05T03:28:55.871Z,993.53
2019-04-05T03:29:55.796Z,993.56
2019-04-05T03:30:55.874Z,993.58
2019-04-05T03:31:55.985Z,993.60
2019-04-05T03:32:55.806Z,993.67
2019-04-05T03:33:55.835Z,993.67
2019-04-05T03:34:55.878Z,993.72
2019-04-05T03:35:55.804Z,993.70
2019-04-05T03:36:55.820Z,993.72
2019-04-05T03:37:55.804Z,993.72
2019-04-05T03:38:55.873Z,993.70
2019-04-05T03:39:55.789Z,993.73
2019-04-05T03:40:55.858Z,993.78
2019-04-05T03:41:55.825Z,993.69
2019-04-05T03:42:55.846Z,993.77
2019-04-05T03:43:55.839Z,993.79
2019-04-05T03:44:55.895Z,993.82
2019-04-05T03:45:55.848Z,993.80
2019-04-05T03:46:57.688Z,993.79
2019-04-05T03:47:55.884Z,993.84
2019-04-05T03:48:55.853Z,993.80
2019-04-05T03:49:55.830Z,993.84
2019-04-05T03:50:55.804Z,993.81
2019-04-05T03:51:55.895Z,993.81
2019-04-05T03:52:55.875Z,993.85
2019-04-05T03:53:55.854Z,993.84
2019-04-05T03:54:55.876Z,993.83
2019-04-05T03:55:55.914Z,993.86
2019-04-05T03:56:55.787Z,993.84
2019-04-05T03:57:55.909Z,993.83
2019-04-05T03:58:55.945Z,993.84
2019-04-05T03:59:55.882Z,993.82
2019-04-05T04:00:55.859Z,993.81
2019-04-05T04:01:55.820Z,993.80
2019-04-05T04:02:55.818Z,993.77
2019-04-05T04:03:55.905Z,993.77
2019-04-05T04:04:55.882Z,993.78
2019-04-05T04:05:55.815Z,993.77
2019-04-05T04:06:55.816Z,993.75
2019-04-05T04:07:55.823Z,993.81
2019-04-05T04:08:55.922Z,993.78
2019-04-05T04:09:55.913Z,993.77
2019-04-05T04:10:55.855Z,993.76
2019-04-05T04:11:55.925Z,993.80
2019-04-05T04:12:55.848Z,993.75
2019-04-05T04:13:55.857Z,993.76
2019-04-05T04:14:55.784Z,993.79
2019-04-05T04:15:55.864Z,993.76
2019-04-05T04:17:10.981Z,993.77
2019-04-05T04:17:55.915Z,993.80
2019-04-05T04:18:55.891Z,993.83
2019-04-05T04:19:55.898Z,993.81
2019-04-05T04:20:55.825Z,993.80
2019-04-05T04:21:55.897Z,993.84
2019-04-05T04:22:55.828Z,993.85
2019-04-05T04:23:55.879Z,993.84
2019-04-05T04:24:55.902Z,993.88
2019-04-05T04:25:55.830Z,993.87
2019-04-05T04:26:55.894Z,993.89
2019-04-05T04:27:55.825Z,993.87
2019-04-05T04:28:55.986Z,993.86
2019-04-05T04:29:55.777Z,993.85
2019-04-05T04:30:55.739Z,993.82
2019-04-05T04:31:55.686Z,993.81
2019-04-05T04:32:55.684Z,993.81
2019-04-05T04:33:55.733Z,993.84
2019-04-05T04:34:55.698Z,993.85
2019-04-05T04:35:55.701Z,993.81
2019-04-05T04:36:55.746Z,993.86
2019-04-05T04:37:55.702Z,993.86
2019-04-05T04:38:55.699Z,993.86
2019-04-05T04:39:55.923Z,993.86
2019-04-05T04:40:55.928Z,993.92
2019-04-05T04:41:55.847Z,993.90
2019-04-05T04:42:55.936Z,993.93
2019-04-05T04:43:55.905Z,993.97
2019-04-05T04:44:55.811Z,994.01
2019-04-05T04:45:55.883Z,994.02
2019-04-05T04:46:55.868Z,994.02
2019-04-05T04:47:55.933Z,994.03
2019-04-05T04:48:55.922Z,994.09
2019-04-05T04:49:55.908Z,994.11
2019-04-05T04:50:55.856Z,994.12
2019-04-05T04:51:55.911Z,994.13
2019-04-05T04:52:55.913Z,994.16
2019-04-05T04:53:55.841Z,994.11
2019-04-05T04:54:55.914Z,994.13
2019-04-05T04:55:55.928Z,994.10
2019-04-05T04:56:55.853Z,994.04
2019-04-05T04:57:55.847Z,994.02
2019-04-05T04:58:55.914Z,994.07
2019-04-05T04:59:55.922Z,994.07
2019-04-05T05:00:55.931Z,994.08
2019-04-05T05:01:55.853Z,994.13
2019-04-05T05:02:55.853Z,994.14
2019-04-05T05:03:55.926Z,994.15
2019-04-05T05:04:55.864Z,994.14
2019-04-05T05:05:55.861Z,994.16
2019-04-05T05:06:55.860Z,994.12
2019-04-05T05:07:55.928Z,994.10
2019-04-05T05:08:55.867Z,994.12
2019-04-05T05:09:55.959Z,994.01
2019-04-05T05:10:55.952Z,993.97
2019-04-05T05:11:55.861Z,993.97
2019-04-05T05:12:55.881Z,993.99
2019-04-05T05:13:55.837Z,994.00
2019-04-05T05:14:55.866Z,994.00
2019-04-05T05:15:55.890Z,994.04
2019-04-05T05:16:55.887Z,994.09
2019-04-05T05:17:58.850Z,994.12
2019-04-05T05:18:55.959Z,994.10
2019-04-05T05:19:55.890Z,994.09
2019-04-05T05:20:55.879Z,994.08
2019-04-05T05:22:55.918Z,994.04
2019-04-05T05:23:55.925Z,994.07
2019-04-05T05:24:55.900Z,994.09
2019-04-05T05:25:55.891Z,994.09
2019-04-05T05:26:55.927Z,994.14
2019-04-05T05:27:55.802Z,994.09
2019-04-05T05:28:55.861Z,994.11
2019-04-05T05:29:55.828Z,994.07
2019-04-05T05:30:55.863Z,994.06
2019-04-05T05:31:55.867Z,994.05
2019-04-05T05:32:55.934Z,994.04
2019-04-05T05:33:55.823Z,994.04
2019-04-05T05:35:01.856Z,994.06
2019-04-05T05:35:55.844Z,994.10
2019-04-05T05:36:55.950Z,994.11
2019-04-05T05:37:55.843Z,994.16
2019-04-05T05:38:55.981Z,994.22
2019-04-05T05:39:55.952Z,994.23
2019-04-05T05:40:55.886Z,994.23
2019-04-05T05:41:55.881Z,994.25
2019-04-05T05:42:55.878Z,994.15
2019-04-05T05:43:55.949Z,994.17
2019-04-05T05:44:55.958Z,994.14
2019-04-05T05:45:55.888Z,994.18
2019-04-05T05:46:55.886Z,994.20
2019-04-05T05:47:55.953Z,994.24
2019-04-05T05:48:55.899Z,994.25
2019-04-05T05:49:55.902Z,994.27
2019-04-05T05:50:55.954Z,994.35
2019-04-05T05:51:55.894Z,994.37
2019-04-05T05:52:55.960Z,994.36
2019-04-05T05:53:55.893Z,994.38
2019-04-05T05:54:55.884Z,994.37
2019-04-05T05:55:55.962Z,994.42
2019-04-05T05:56:55.888Z,994.40
2019-04-05T05:57:58.686Z,994.37
2019-04-05T05:58:59.432Z,994.37
2019-04-05T05:59:55.980Z,994.36
2019-04-05T06:00:55.973Z,994.42
2019-04-05T06:01:55.899Z,994.38
2019-04-05T06:02:55.924Z,994.39
2019-04-05T06:03:55.934Z,994.42
2019-04-05T06:04:55.961Z,994.45
2019-04-05T06:06:04.335Z,994.47
2019-04-05T06:06:55.905Z,994.45
2019-04-05T06:07:55.911Z,994.50
2019-04-05T06:08:55.911Z,994.55
2019-04-05T06:09:55.966Z,994.57
2019-04-05T06:10:55.904Z,994.59
2019-04-05T06:11:55.902Z,994.58
2019-04-05T06:12:58.654Z,994.63
2019-04-05T06:13:55.971Z,994.60
2019-04-05T06:14:55.970Z,994.63
2019-04-05T06:15:55.902Z,994.67
2019-04-05T06:16:55.973Z,994.65
2019-04-05T06:18:04.698Z,994.70
2019-04-05T06:18:55.973Z,994.68
2019-04-05T06:19:55.900Z,994.70
2019-04-05T06:20:55.989Z,994.70
2019-04-05T06:21:55.990Z,994.71
2019-04-05T06:22:55.953Z,994.73
2019-04-05T06:23:55.931Z,994.72
2019-04-05T06:24:56.012Z,994.75
2019-04-05T06:25:55.934Z,994.69
2019-04-05T06:26:55.992Z,994.73
2019-04-05T06:27:57.160Z,994.71
2019-04-05T06:28:55.922Z,994.71
2019-04-05T06:29:55.953Z,994.71
2019-04-05T06:30:55.929Z,994.69
2019-04-05T06:31:55.896Z,994.65
2019-04-05T06:32:55.936Z,994.65
2019-04-05T06:33:56.017Z,994.65
2019-04-05T06:34:55.924Z,994.64
2019-04-05T06:35:56.056Z,994.65
2019-04-05T06:36:55.998Z,994.64
2019-04-05T06:37:55.925Z,994.60
2019-04-05T06:38:55.924Z,994.66
2019-04-05T06:39:55.916Z,994.56
2019-04-05T06:40:56.033Z,994.56
2019-04-05T06:41:55.924Z,994.59
2019-04-05T06:42:55.944Z,994.60
2019-04-05T06:43:55.998Z,994.55
2019-04-05T06:44:55.992Z,994.53
2019-04-05T06:45:56.081Z,994.55
2019-04-05T06:46:55.927Z,994.55
2019-04-05T06:47:55.991Z,994.59
2019-04-05T06:48:55.937Z,994.61
2019-04-05T06:49:55.996Z,994.61
2019-04-05T06:50:55.925Z,994.60
2019-04-05T06:51:56.000Z,994.57
2019-04-05T06:52:55.923Z,994.53
2019-04-05T06:53:56.005Z,994.52
2019-04-05T06:54:55.934Z,994.49
2019-04-05T06:55:55.932Z,994.44
2019-04-05T06:56:55.999Z,994.44
2019-04-05T06:57:55.940Z,994.45
2019-04-05T06:58:56.009Z,994.44
2019-04-05T06:59:56.021Z,994.46
2019-04-05T07:00:57.315Z,994.44
2019-04-05T07:01:55.951Z,994.49
2019-04-05T07:02:55.963Z,994.44
2019-04-05T07:03:55.983Z,994.46
2019-04-05T07:04:55.948Z,994.46
2019-04-05T07:05:56.016Z,994.49
2019-04-05T07:06:55.949Z,994.49
2019-04-05T07:07:55.986Z,994.52
2019-04-05T07:08:55.959Z,994.53
2019-04-05T07:09:55.935Z,994.53
2019-04-05T07:10:56.009Z,994.58
2019-04-05T07:11:55.956Z,994.55
2019-04-05T07:12:56.127Z,994.56
2019-04-05T07:13:56.015Z,994.56
2019-04-05T07:14:56.306Z,994.54
2019-04-05T07:15:55.952Z,994.48
2019-04-05T07:16:56.012Z,994.51
2019-04-05T07:17:56.014Z,994.48
2019-04-05T07:18:56.011Z,994.49
2019-04-05T07:19:55.967Z,994.48
2019-04-05T07:20:57.924Z,994.50
2019-04-05T07:21:56.043Z,994.49
2019-04-05T07:22:55.964Z,994.53
2019-04-05T07:23:56.032Z,994.56
2019-04-05T07:24:56.003Z,994.56
2019-04-05T07:25:56.035Z,994.55
2019-04-05T07:26:56.038Z,994.53
2019-04-05T07:27:56.037Z,994.50
2019-04-05T07:28:56.024Z,994.52
2019-04-05T07:29:56.043Z,994.52
2019-04-05T07:30:56.033Z,994.49
2019-04-05T07:31:56.041Z,994.52
2019-04-05T07:32:55.970Z,994.56
2019-04-05T07:33:56.387Z,994.60
2019-04-05T07:34:56.047Z,994.63
2019-04-05T07:35:56.043Z,994.65
2019-04-05T07:36:56.040Z,994.64
2019-04-05T07:37:56.009Z,994.65
2019-04-05T07:38:56.043Z,994.63
2019-04-05T07:39:56.064Z,994.63
2019-04-05T07:40:55.978Z,994.60
2019-04-05T07:41:56.111Z,994.61
2019-04-05T07:42:56.046Z,994.60
2019-04-05T07:43:55.977Z,994.61
2019-04-05T07:44:56.074Z,994.63
2019-04-05T07:45:55.976Z,994.62
2019-04-05T07:46:55.977Z,994.63
2019-04-05T07:47:56.051Z,994.64
2019-04-05T07:48:55.978Z,994.62
2019-04-05T07:49:56.000Z,994.64
2019-04-05T07:50:56.047Z,994.66
2019-04-05T07:51:56.055Z,994.67
2019-04-05T07:52:56.123Z,994.68
2019-04-05T07:53:55.980Z,994.69
2019-04-05T07:54:55.982Z,994.69
2019-04-05T07:55:56.057Z,994.64
2019-04-05T07:56:56.054Z,994.68
2019-04-05T07:57:55.984Z,994.65
2019-04-05T07:58:56.059Z,994.64
2019-04-05T07:59:56.044Z,994.68
2019-04-05T08:00:56.048Z,994.68
2019-04-05T08:01:56.050Z,994.68
2019-04-05T08:02:55.980Z,994.69
2019-04-05T08:03:57.995Z,994.63
2019-04-05T08:04:55.973Z,994.68
2019-04-05T08:05:55.980Z,994.72
2019-04-05T08:06:56.048Z,994.72
2019-04-05T08:07:55.976Z,994.71
2019-04-05T08:08:56.111Z,994.69
2019-04-05T08:09:56.049Z,994.73
2019-04-05T08:10:56.052Z,994.71
2019-04-05T08:11:55.961Z,994.68
2019-04-05T08:12:55.938Z,994.71
2019-04-05T08:13:55.956Z,994.75
2019-04-05T08:14:55.932Z,994.74
2019-04-05T08:15:56.007Z,994.76
2019-04-05T08:16:56.114Z,994.75
2019-04-05T08:17:55.960Z,994.73
2019-04-05T08:18:57.911Z,994.74
2019-04-05T08:19:56.002Z,994.74
2019-04-05T08:20:55.957Z,994.73
2019-04-05T08:21:55.993Z,994.70
2019-04-05T08:22:55.895Z,994.71
2019-04-05T08:23:55.960Z,994.71
2019-04-05T08:24:55.892Z,994.71
2019-04-05T08:25:55.953Z,994.67
2019-04-05T08:26:55.893Z,994.73
2019-04-05T08:27:56.001Z,994.71
2019-04-05T08:28:55.954Z,994.71
2019-04-05T08:29:56.018Z,994.71
2019-04-05T08:30:56.078Z,994.70
2019-04-05T08:31:56.085Z,994.74
2019-04-05T08:32:56.081Z,994.74
2019-04-05T08:33:56.090Z,994.73
2019-04-05T08:34:56.014Z,994.73
2019-04-05T08:35:56.016Z,994.73
2019-04-05T08:36:56.085Z,994.73
2019-04-05T08:37:56.083Z,994.77
2019-04-05T08:38:56.023Z,994.80
2019-04-05T08:39:56.021Z,994.80
2019-04-05T08:40:56.089Z,994.85
2019-04-05T08:41:56.028Z,994.86
2019-04-05T08:42:56.021Z,994.89
2019-04-05T08:43:56.100Z,994.91
2019-04-05T08:44:56.157Z,994.98
2019-04-05T08:45:56.089Z,994.95
2019-04-05T08:46:56.100Z,994.93
2019-04-05T08:47:56.090Z,994.97
2019-04-05T08:48:56.041Z,994.96
2019-04-05T08:49:56.090Z,994.98
2019-04-05T08:50:56.097Z,994.96
2019-04-05T08:51:56.038Z,995.01
2019-04-05T08:52:56.021Z,995.02
2019-04-05T08:53:56.023Z,995.00
2019-04-05T08:54:56.099Z,994.97
2019-04-05T08:55:56.098Z,994.98
2019-04-05T08:56:56.102Z,994.97
2019-04-05T08:57:56.101Z,994.94
2019-04-05T08:58:56.027Z,994.92
2019-04-05T08:59:55.998Z,994.95
2019-04-05T09:00:56.079Z,994.96
2019-04-05T09:01:56.034Z,994.96
2019-04-05T09:02:56.109Z,994.94
2019-04-05T09:03:56.053Z,994.94
2019-04-05T09:04:56.074Z,994.91
2019-04-05T09:05:56.054Z,994.96
2019-04-05T09:06:55.961Z,994.94
2019-04-05T09:07:56.085Z,994.94
2019-04-05T09:08:56.027Z,994.98
2019-04-05T09:09:55.986Z,994.99
2019-04-05T09:10:56.092Z,994.99
2019-04-05T09:11:56.097Z,995.01
2019-04-05T09:12:55.989Z,994.99
2019-04-05T09:13:56.043Z,995.00
2019-04-05T09:14:56.044Z,995.01
2019-04-05T09:15:56.038Z,994.96
2019-04-05T09:16:56.032Z,994.92
2019-04-05T09:17:56.092Z,994.96
2019-04-05T09:18:56.000Z,994.90
2019-04-05T09:19:56.024Z,994.92
2019-04-05T09:20:56.105Z,994.93
2019-04-05T09:21:56.042Z,994.96
2019-04-05T09:22:56.037Z,994.91
2019-04-05T09:23:59.016Z,994.92
2019-04-05T09:24:56.106Z,994.92
2019-04-05T09:25:56.032Z,994.92
2019-04-05T09:26:56.109Z,994.94
2019-04-05T09:27:56.109Z,994.88
2019-04-05T09:28:56.033Z,994.87
2019-04-05T09:29:56.037Z,994.88
2019-04-05T09:30:56.117Z,994.87
2019-04-05T09:31:56.113Z,994.85
2019-04-05T09:32:56.111Z,994.84
2019-04-05T09:33:56.111Z,994.82
2019-04-05T09:34:56.045Z,994.78
2019-04-05T09:35:56.125Z,994.77
2019-04-05T09:36:56.041Z,994.77
2019-04-05T09:37:56.115Z,994.78
2019-04-05T09:38:56.119Z,994.81
2019-04-05T09:39:56.047Z,994.81
2019-04-05T09:40:56.053Z,994.87
2019-04-05T09:41:55.936Z,994.82
2019-04-05T09:42:56.032Z,994.84
2019-04-05T09:43:56.050Z,994.86
2019-04-05T09:44:56.031Z,994.83
2019-04-05T09:45:56.031Z,994.84
2019-04-05T09:46:56.045Z,994.80
2019-04-05T09:47:56.035Z,994.83
2019-04-05T09:48:55.999Z,994.84
2019-04-05T09:49:55.987Z,994.83
2019-04-05T09:50:56.153Z,994.85
2019-04-05T09:51:56.066Z,994.92
2019-04-05T09:52:56.139Z,994.89
2019-04-05T09:53:56.067Z,994.91
2019-04-05T09:54:56.137Z,994.94
2019-04-05T09:55:56.064Z,994.92
2019-04-05T09:56:56.914Z,994.93
2019-04-05T09:57:56.077Z,994.91
2019-04-05T09:58:56.133Z,994.92
2019-04-05T09:59:56.131Z,994.94
2019-04-05T10:00:56.142Z,994.97
2019-04-05T10:01:56.077Z,994.98
2019-04-05T10:02:56.153Z,995.01
2019-04-05T10:03:56.078Z,995.00
2019-04-05T10:04:56.150Z,994.98
2019-04-05T10:05:56.172Z,995.03
2019-04-05T10:06:56.074Z,994.98
2019-04-05T10:07:56.091Z,994.98
2019-04-05T10:08:56.157Z,995.02
2019-04-05T10:09:56.146Z,995.02
2019-04-05T10:10:56.078Z,995.08
2019-04-05T10:11:56.065Z,995.12
2019-04-05T10:12:56.141Z,995.14
2019-04-05T10:13:56.071Z,995.14
2019-04-05T10:14:56.140Z,995.17
2019-04-05T10:15:56.077Z,995.16
2019-04-05T10:16:56.146Z,995.15
2019-04-05T10:17:56.069Z,995.16
2019-04-05T10:18:56.245Z,995.11
2019-04-05T10:19:56.145Z,995.10
2019-04-05T10:20:56.159Z,995.08
2019-04-05T10:21:56.095Z,995.12
2019-04-05T10:22:56.157Z,995.08
2019-04-05T10:23:56.099Z,995.13
2019-04-05T10:24:56.162Z,995.11
2019-04-05T10:25:56.162Z,995.15
2019-04-05T10:26:56.213Z,995.18
2019-04-05T10:27:56.227Z,995.22
2019-04-05T10:28:56.172Z,995.19
2019-04-05T10:29:56.163Z,995.22
2019-04-05T10:30:56.157Z,995.18
2019-04-05T10:31:56.067Z,995.16
2019-04-05T10:32:56.088Z,995.22
2019-04-05T10:33:56.163Z,995.21
2019-04-05T10:34:56.122Z,995.22
2019-04-05T10:35:56.109Z,995.21
2019-04-05T10:36:56.163Z,995.24
2019-04-05T10:37:58.305Z,995.21
2019-04-05T10:38:56.163Z,995.17
2019-04-05T10:39:56.159Z,995.22
2019-04-05T10:40:56.068Z,995.21
2019-04-05T10:42:03.385Z,995.25
2019-04-05T10:42:56.173Z,995.21
2019-04-05T10:43:58.434Z,995.20
2019-04-05T10:44:56.106Z,995.24
2019-04-05T10:45:56.181Z,995.20
2019-04-05T10:46:56.184Z,995.22
2019-04-05T10:47:56.175Z,995.19
2019-04-05T10:48:56.068Z,995.18
2019-04-05T10:50:02.967Z,995.23
2019-04-05T10:50:56.096Z,995.19
2019-04-05T10:51:56.131Z,995.18
2019-04-05T10:52:56.163Z,995.19
2019-04-05T10:53:56.164Z,995.16
2019-04-05T10:54:57.880Z,995.17
2019-04-05T10:55:56.121Z,995.20
2019-04-05T10:56:56.070Z,995.15
2019-04-05T10:57:56.141Z,995.20
2019-04-05T10:58:56.118Z,995.17
2019-04-05T10:59:56.108Z,995.18
2019-04-05T11:00:56.155Z,995.18
2019-04-05T11:01:56.035Z,995.17
2019-04-05T11:02:56.062Z,995.19
2019-04-05T11:03:56.154Z,995.18
2019-04-05T11:04:56.044Z,995.16
2019-04-05T11:05:56.137Z,995.20
2019-04-05T11:06:56.044Z,995.21
2019-04-05T11:07:56.087Z,995.18
2019-04-05T11:08:56.139Z,995.18
2019-04-05T11:09:56.131Z,995.18
2019-04-05T11:10:56.123Z,995.17
2019-04-05T11:11:56.222Z,995.21
2019-04-05T11:12:56.134Z,995.18
2019-04-05T11:13:56.132Z,995.17
2019-04-05T11:14:56.217Z,995.17
2019-04-05T11:15:56.128Z,995.18
2019-04-05T11:16:58.598Z,995.21
2019-04-05T11:17:56.216Z,995.16
2019-04-05T11:18:56.203Z,995.17
2019-04-05T11:19:56.205Z,995.22
2019-04-05T11:20:56.241Z,995.18
2019-04-05T11:21:56.168Z,995.21
2019-04-05T11:22:56.149Z,995.18
2019-04-05T11:23:56.371Z,995.18
2019-04-05T11:24:56.209Z,995.19
2019-04-05T11:25:56.241Z,995.25
2019-04-05T11:26:56.164Z,995.22
2019-04-05T11:27:56.162Z,995.19
2019-04-05T11:28:56.095Z,995.16
2019-04-05T11:29:57.813Z,995.18
2019-04-05T11:30:56.207Z,995.18
2019-04-05T11:31:57.677Z,995.17
2019-04-05T11:32:56.126Z,995.17
2019-04-05T11:33:56.197Z,995.17
2019-04-05T11:34:56.198Z,995.22
2019-04-05T11:35:57.871Z,995.19
2019-04-05T11:36:56.128Z,995.18
2019-04-05T11:37:56.202Z,995.21
2019-04-05T11:38:56.131Z,995.18
2019-04-05T11:39:56.144Z,995.19
2019-04-05T11:40:56.204Z,995.20
2019-04-05T11:41:56.139Z,995.19
2019-04-05T11:42:56.205Z,995.22
2019-04-05T11:43:56.145Z,995.23
2019-04-05T11:44:56.210Z,995.21
2019-04-05T11:45:56.135Z,995.20
2019-04-05T11:46:56.210Z,995.19
2019-04-05T11:47:57.716Z,995.24
2019-04-05T11:48:56.159Z,995.25
2019-04-05T11:49:56.269Z,995.23
2019-04-05T11:50:56.146Z,995.23
2019-04-05T11:51:56.215Z,995.22
2019-04-05T11:52:56.149Z,995.24
2019-04-05T11:53:56.216Z,995.25
2019-04-05T11:54:56.143Z,995.23
2019-04-05T11:55:56.214Z,995.24
2019-04-05T11:56:56.147Z,995.25
2019-04-05T11:57:56.221Z,995.23
2019-04-05T11:58:56.149Z,995.28
2019-04-05T11:59:56.216Z,995.29
2019-04-05T12:00:56.230Z,995.33
2019-04-05T12:01:56.231Z,995.30
2019-04-05T12:02:56.160Z,995.29
2019-04-05T12:03:56.238Z,995.29
2019-04-05T12:04:56.124Z,995.27
2019-04-05T12:05:56.162Z,995.30
2019-04-05T12:06:56.184Z,995.24
2019-04-05T12:08:00.932Z,995.24
2019-04-05T12:08:56.239Z,995.25
2019-04-05T12:09:56.132Z,995.22
2019-04-05T12:10:56.217Z,995.22
2019-04-05T12:11:56.215Z,995.21
2019-04-05T12:12:56.228Z,995.23
2019-04-05T12:13:56.104Z,995.20
2019-04-05T12:14:56.207Z,995.21
2019-04-05T12:15:58.139Z,995.18
2019-04-05T12:16:56.195Z,995.22
2019-04-05T12:17:56.228Z,995.22
2019-04-05T12:18:58.802Z,995.21
2019-04-05T12:19:56.144Z,995.25
2019-04-05T12:21:00.412Z,995.23
2019-04-05T12:21:56.199Z,995.21
2019-04-05T12:22:56.181Z,995.21
2019-04-05T12:23:56.253Z,995.24
2019-04-05T12:24:56.257Z,995.19
2019-04-05T12:25:56.251Z,995.19
2019-04-05T12:26:56.255Z,995.19
2019-04-05T12:28:06.162Z,995.16
2019-04-05T12:28:56.315Z,995.16
2019-04-05T12:29:56.139Z,995.16